sensor_id;sensor_type;location;lat;lon;timestamp;temperature;humidity
8539;DHT22;4307;53.868;11.680;2023-03-08T00:00:46;0.50;99.90
8539;DHT22;4307;53.868;11.680;2023-03-08T00:03:13;0.40;99.90
8539;DHT22;4307;53.868;11.680;2023-03-08T00:05:40;0.40;99.90
8539;DHT22;4307;53.868;11.680;2023-03-08T00:08:07;0.40;99.90
8539;DHT22;4307;53.868;11.680;2023-03-08T00:10:34;0.40;99.90
8539;DHT22;4307;53.868;11.680;2023-03-08T00:13:00;0.40;99.90
8539;DHT22;4307;53.868;11.680;2023-03-08T00:15:27;0.40;99.90
8539;DHT22;4307;53.868;11.680;2023-03-08T00:17:55;0.40;99.90
8539;DHT22;4307;53.868;11.680;2023-03-08T00:20:22;0.40;99.90
8539;DHT22;4307;53.868;11.680;2023-03-08T00:22:48;0.40;99.90
8539;DHT22;4307;53.868;11.680;2023-03-08T00:25:15;0.40;99.90
8539;DHT22;4307;53.868;11.680;2023-03-08T00:27:42;0.40;99.90
8539;DHT22;4307;53.868;11.680;2023-03-08T00:30:10;0.40;99.90
8539;DHT22;4307;53.868;11.680;2023-03-08T00:32:37;0.40;99.90
8539;DHT22;4307;53.868;11.680;2023-03-08T00:35:06;0.30;99.90
8539;DHT22;4307;53.868;11.680;2023-03-08T00:37:33;0.30;99.90
8539;DHT22;4307;53.868;11.680;2023-03-08T00:39:59;0.30;99.90
8539;DHT22;4307;53.868;11.680;2023-03-08T00:42:26;0.30;99.90
8539;DHT22;4307;53.868;11.680;2023-03-08T00:44:53;0.30;99.90
8539;DHT22;4307;53.868;11.680;2023-03-08T00:47:19;0.30;99.90
8539;DHT22;4307;53.868;11.680;2023-03-08T00:49:46;0.30;99.90
8539;DHT22;4307;53.868;11.680;2023-03-08T00:52:14;0.30;99.90
8539;DHT22;4307;53.868;11.680;2023-03-08T00:54:41;0.30;99.90
8539;DHT22;4307;53.868;11.680;2023-03-08T00:57:08;0.30;99.90
8539;DHT22;4307;53.868;11.680;2023-03-08T00:59:34;0.30;99.90
8539;DHT22;4307;53.868;11.680;2023-03-08T01:02:01;0.30;99.90
8539;DHT22;4307;53.868;11.680;2023-03-08T01:04:28;0.20;99.90
8539;DHT22;4307;53.868;11.680;2023-03-08T01:06:54;0.20;99.90
8539;DHT22;4307;53.868;11.680;2023-03-08T01:09:22;0.20;99.90
8539;DHT22;4307;53.868;11.680;2023-03-08T01:11:49;0.20;99.90
8539;DHT22;4307;53.868;11.680;2023-03-08T01:14:16;0.20;99.90
8539;DHT22;4307;53.868;11.680;2023-03-08T01:16:43;0.20;99.90
8539;DHT22;4307;53.868;11.680;2023-03-08T01:19:09;0.20;99.90
8539;DHT22;4307;53.868;11.680;2023-03-08T01:21:36;0.20;99.90
8539;DHT22;4307;53.868;11.680;2023-03-08T01:24:04;0.20;99.90
8539;DHT22;4307;53.868;11.680;2023-03-08T01:26:32;0.20;99.90
8539;DHT22;4307;53.868;11.680;2023-03-08T01:28:59;0.20;99.90
8539;DHT22;4307;53.868;11.680;2023-03-08T01:31:27;0.20;99.90
8539;DHT22;4307;53.868;11.680;2023-03-08T01:33:55;0.10;99.90
8539;DHT22;4307;53.868;11.680;2023-03-08T01:36:24;0.10;99.90
8539;DHT22;4307;53.868;11.680;2023-03-08T01:38:51;0.10;99.90
8539;DHT22;4307;53.868;11.680;2023-03-08T01:41:20;0.10;99.90
8539;DHT22;4307;53.868;11.680;2023-03-08T01:43:49;0.10;99.90
8539;DHT22;4307;53.868;11.680;2023-03-08T01:46:22;0.10;99.90
8539;DHT22;4307;53.868;11.680;2023-03-08T01:48:52;0.10;99.90
8539;DHT22;4307;53.868;11.680;2023-03-08T01:51:25;0.10;99.90
8539;DHT22;4307;53.868;11.680;2023-03-08T01:53:55;0.20;99.90
8539;DHT22;4307;53.868;11.680;2023-03-08T01:56:22;0.20;99.90
8539;DHT22;4307;53.868;11.680;2023-03-08T01:58:51;0.20;99.90
8539;DHT22;4307;53.868;11.680;2023-03-08T02:01:19;0.20;99.90
8539;DHT22;4307;53.868;11.680;2023-03-08T02:03:46;0.20;99.90
8539;DHT22;4307;53.868;11.680;2023-03-08T02:06:14;0.20;99.90
8539;DHT22;4307;53.868;11.680;2023-03-08T02:08:41;0.20;99.90
8539;DHT22;4307;53.868;11.680;2023-03-08T02:11:09;0.20;99.90
8539;DHT22;4307;53.868;11.680;2023-03-08T02:13:36;0.20;99.90
8539;DHT22;4307;53.868;11.680;2023-03-08T02:16:05;0.20;99.90
8539;DHT22;4307;53.868;11.680;2023-03-08T02:18:33;0.20;99.90
8539;DHT22;4307;53.868;11.680;2023-03-08T02:21:00;0.20;99.90
8539;DHT22;4307;53.868;11.680;2023-03-08T02:23:28;0.20;99.90
8539;DHT22;4307;53.868;11.680;2023-03-08T02:25:57;0.20;99.90
8539;DHT22;4307;53.868;11.680;2023-03-08T02:28:25;0.20;99.90
8539;DHT22;4307;53.868;11.680;2023-03-08T02:30:53;0.20;99.90
8539;DHT22;4307;53.868;11.680;2023-03-08T02:33:21;0.30;99.90
8539;DHT22;4307;53.868;11.680;2023-03-08T02:35:48;0.30;99.90
8539;DHT22;4307;53.868;11.680;2023-03-08T02:38:17;0.30;99.90
8539;DHT22;4307;53.868;11.680;2023-03-08T02:40:45;0.20;99.90
8539;DHT22;4307;53.868;11.680;2023-03-08T02:43:13;0.30;99.90
8539;DHT22;4307;53.868;11.680;2023-03-08T02:45:39;0.30;99.90
8539;DHT22;4307;53.868;11.680;2023-03-08T02:48:06;0.30;99.90
8539;DHT22;4307;53.868;11.680;2023-03-08T02:50:33;0.30;99.90
8539;DHT22;4307;53.868;11.680;2023-03-08T02:53:00;0.30;99.90
8539;DHT22;4307;53.868;11.680;2023-03-08T02:55:27;0.20;99.90
8539;DHT22;4307;53.868;11.680;2023-03-08T02:57:55;0.20;99.90
8539;DHT22;4307;53.868;11.680;2023-03-08T03:00:22;0.20;99.90
8539;DHT22;4307;53.868;11.680;2023-03-08T03:02:49;0.20;99.90
8539;DHT22;4307;53.868;11.680;2023-03-08T03:05:15;0.20;99.90
8539;DHT22;4307;53.868;11.680;2023-03-08T03:07:43;0.20;99.90
8539;DHT22;4307;53.868;11.680;2023-03-08T03:10:11;0.20;99.90
8539;DHT22;4307;53.868;11.680;2023-03-08T03:12:38;0.20;99.90
8539;DHT22;4307;53.868;11.680;2023-03-08T03:15:08;0.20;99.90
8539;DHT22;4307;53.868;11.680;2023-03-08T03:17:35;0.20;99.90
8539;DHT22;4307;53.868;11.680;2023-03-08T03:20:02;0.20;99.90
8539;DHT22;4307;53.868;11.680;2023-03-08T03:22:31;0.10;99.90
8539;DHT22;4307;53.868;11.680;2023-03-08T03:24:57;0.10;99.90
8539;DHT22;4307;53.868;11.680;2023-03-08T03:27:24;0.10;99.90
8539;DHT22;4307;53.868;11.680;2023-03-08T03:29:51;0.10;99.90
8539;DHT22;4307;53.868;11.680;2023-03-08T03:32:19;0.10;99.90
8539;DHT22;4307;53.868;11.680;2023-03-08T03:34:46;0.10;99.90
8539;DHT22;4307;53.868;11.680;2023-03-08T03:37:12;0.10;99.90
8539;DHT22;4307;53.868;11.680;2023-03-08T03:39:39;0.00;99.90
8539;DHT22;4307;53.868;11.680;2023-03-08T03:42:06;0.00;99.90
8539;DHT22;4307;53.868;11.680;2023-03-08T03:44:33;0.00;99.90
8539;DHT22;4307;53.868;11.680;2023-03-08T03:46:59;0.00;99.90
8539;DHT22;4307;53.868;11.680;2023-03-08T03:49:28;-0.10;99.90
8539;DHT22;4307;53.868;11.680;2023-03-08T03:51:54;-0.10;99.90
8539;DHT22;4307;53.868;11.680;2023-03-08T03:54:21;-0.10;99.90
8539;DHT22;4307;53.868;11.680;2023-03-08T03:56:48;-0.10;99.90
8539;DHT22;4307;53.868;11.680;2023-03-08T03:59:14;-0.10;99.90
8539;DHT22;4307;53.868;11.680;2023-03-08T04:01:41;-0.10;99.90
8539;DHT22;4307;53.868;11.680;2023-03-08T04:04:08;-0.10;99.90
8539;DHT22;4307;53.868;11.680;2023-03-08T04:06:37;-0.10;99.90
8539;DHT22;4307;53.868;11.680;2023-03-08T04:09:07;-0.10;99.90
8539;DHT22;4307;53.868;11.680;2023-03-08T04:11:36;-0.10;99.90
8539;DHT22;4307;53.868;11.680;2023-03-08T04:14:03;-0.10;99.90
8539;DHT22;4307;53.868;11.680;2023-03-08T04:16:32;-0.10;99.90
8539;DHT22;4307;53.868;11.680;2023-03-08T04:19:00;0.00;99.90
8539;DHT22;4307;53.868;11.680;2023-03-08T04:21:28;0.00;99.90
8539;DHT22;4307;53.868;11.680;2023-03-08T04:23:56;0.00;99.90
8539;DHT22;4307;53.868;11.680;2023-03-08T04:26:23;0.00;99.90
8539;DHT22;4307;53.868;11.680;2023-03-08T04:28:50;0.00;99.90
8539;DHT22;4307;53.868;11.680;2023-03-08T04:31:19;0.00;99.90
8539;DHT22;4307;53.868;11.680;2023-03-08T04:33:47;0.10;99.90
8539;DHT22;4307;53.868;11.680;2023-03-08T04:36:15;0.10;99.90
8539;DHT22;4307;53.868;11.680;2023-03-08T04:38:41;0.10;99.90
8539;DHT22;4307;53.868;11.680;2023-03-08T04:41:10;0.10;99.90
8539;DHT22;4307;53.868;11.680;2023-03-08T04:43:37;0.10;99.90
8539;DHT22;4307;53.868;11.680;2023-03-08T04:46:05;0.10;99.90
8539;DHT22;4307;53.868;11.680;2023-03-08T04:48:32;0.20;99.90
8539;DHT22;4307;53.868;11.680;2023-03-08T04:51:01;0.20;99.90
8539;DHT22;4307;53.868;11.680;2023-03-08T04:53:29;0.20;99.90
8539;DHT22;4307;53.868;11.680;2023-03-08T04:55:56;0.20;99.90
8539;DHT22;4307;53.868;11.680;2023-03-08T04:58:25;0.20;99.90
8539;DHT22;4307;53.868;11.680;2023-03-08T05:00:52;0.30;99.90
8539;DHT22;4307;53.868;11.680;2023-03-08T05:03:18;0.30;99.90
8539;DHT22;4307;53.868;11.680;2023-03-08T05:05:46;0.30;99.90
8539;DHT22;4307;53.868;11.680;2023-03-08T05:08:13;0.40;99.90
8539;DHT22;4307;53.868;11.680;2023-03-08T05:10:46;0.40;99.90
8539;DHT22;4307;53.868;11.680;2023-03-08T05:13:12;0.40;99.90
8539;DHT22;4307;53.868;11.680;2023-03-08T05:15:40;0.40;99.90
8539;DHT22;4307;53.868;11.680;2023-03-08T05:18:07;0.40;99.90
8539;DHT22;4307;53.868;11.680;2023-03-08T05:20:33;0.40;99.90
8539;DHT22;4307;53.868;11.680;2023-03-08T05:23:00;0.40;99.90
8539;DHT22;4307;53.868;11.680;2023-03-08T05:25:28;0.50;99.90
8539;DHT22;4307;53.868;11.680;2023-03-08T05:27:56;0.50;99.90
8539;DHT22;4307;53.868;11.680;2023-03-08T05:30:22;0.60;99.90
8539;DHT22;4307;53.868;11.680;2023-03-08T05:32:50;0.60;99.90
8539;DHT22;4307;53.868;11.680;2023-03-08T05:35:17;0.60;99.90
8539;DHT22;4307;53.868;11.680;2023-03-08T05:37:44;0.70;99.90
8539;DHT22;4307;53.868;11.680;2023-03-08T05:40:11;0.70;99.90
8539;DHT22;4307;53.868;11.680;2023-03-08T05:42:38;0.70;99.90
8539;DHT22;4307;53.868;11.680;2023-03-08T05:45:05;0.70;99.90
8539;DHT22;4307;53.868;11.680;2023-03-08T05:47:32;0.70;99.90
8539;DHT22;4307;53.868;11.680;2023-03-08T05:50:00;0.80;99.90
8539;DHT22;4307;53.868;11.680;2023-03-08T05:52:28;0.80;99.90
8539;DHT22;4307;53.868;11.680;2023-03-08T05:54:55;0.80;99.90
8539;DHT22;4307;53.868;11.680;2023-03-08T05:57:21;0.80;99.90
8539;DHT22;4307;53.868;11.680;2023-03-08T05:59:48;0.80;99.90
8539;DHT22;4307;53.868;11.680;2023-03-08T06:02:15;0.80;99.90
8539;DHT22;4307;53.868;11.680;2023-03-08T06:04:42;0.80;99.90
8539;DHT22;4307;53.868;11.680;2023-03-08T06:07:09;0.80;99.90
8539;DHT22;4307;53.868;11.680;2023-03-08T06:09:36;0.80;99.90
8539;DHT22;4307;53.868;11.680;2023-03-08T06:12:03;0.80;99.90
8539;DHT22;4307;53.868;11.680;2023-03-08T06:14:30;0.80;99.90
8539;DHT22;4307;53.868;11.680;2023-03-08T06:16:56;0.90;99.90
8539;DHT22;4307;53.868;11.680;2023-03-08T06:19:23;0.90;99.90
8539;DHT22;4307;53.868;11.680;2023-03-08T06:21:50;0.90;99.90
8539;DHT22;4307;53.868;11.680;2023-03-08T06:24:18;1.00;99.90
8539;DHT22;4307;53.868;11.680;2023-03-08T06:26:44;1.00;99.90
8539;DHT22;4307;53.868;11.680;2023-03-08T06:29:11;1.00;99.90
8539;DHT22;4307;53.868;11.680;2023-03-08T06:31:38;1.00;99.90
8539;DHT22;4307;53.868;11.680;2023-03-08T06:34:04;1.00;99.90
8539;DHT22;4307;53.868;11.680;2023-03-08T06:36:31;0.90;99.90
8539;DHT22;4307;53.868;11.680;2023-03-08T06:38:58;1.00;99.90
8539;DHT22;4307;53.868;11.680;2023-03-08T06:41:26;1.00;99.90
8539;DHT22;4307;53.868;11.680;2023-03-08T06:43:54;1.00;99.90
8539;DHT22;4307;53.868;11.680;2023-03-08T06:46:21;1.10;99.90
8539;DHT22;4307;53.868;11.680;2023-03-08T06:48:48;1.10;99.90
8539;DHT22;4307;53.868;11.680;2023-03-08T06:51:15;1.10;99.90
8539;DHT22;4307;53.868;11.680;2023-03-08T06:53:42;1.20;99.90
8539;DHT22;4307;53.868;11.680;2023-03-08T06:56:12;1.20;99.90
8539;DHT22;4307;53.868;11.680;2023-03-08T06:58:40;1.20;99.90
8539;DHT22;4307;53.868;11.680;2023-03-08T07:01:07;1.20;99.90
8539;DHT22;4307;53.868;11.680;2023-03-08T07:03:34;1.20;99.90
8539;DHT22;4307;53.868;11.680;2023-03-08T07:06:03;1.20;99.90
8539;DHT22;4307;53.868;11.680;2023-03-08T07:08:30;1.30;99.90
8539;DHT22;4307;53.868;11.680;2023-03-08T07:10:57;1.30;99.90
8539;DHT22;4307;53.868;11.680;2023-03-08T07:13:24;1.40;99.90
8539;DHT22;4307;53.868;11.680;2023-03-08T07:15:52;1.40;99.90
8539;DHT22;4307;53.868;11.680;2023-03-08T07:18:20;1.50;99.90
8539;DHT22;4307;53.868;11.680;2023-03-08T07:20:51;1.50;99.90
8539;DHT22;4307;53.868;11.680;2023-03-08T07:23:17;1.50;99.90
8539;DHT22;4307;53.868;11.680;2023-03-08T07:25:44;1.50;99.90
8539;DHT22;4307;53.868;11.680;2023-03-08T07:28:11;1.60;99.90
8539;DHT22;4307;53.868;11.680;2023-03-08T07:30:38;1.60;99.90
8539;DHT22;4307;53.868;11.680;2023-03-08T07:33:06;1.60;99.90
8539;DHT22;4307;53.868;11.680;2023-03-08T07:35:32;1.70;99.90
8539;DHT22;4307;53.868;11.680;2023-03-08T07:37:59;1.70;99.90
8539;DHT22;4307;53.868;11.680;2023-03-08T07:40:26;1.70;99.90
8539;DHT22;4307;53.868;11.680;2023-03-08T07:42:52;1.70;99.90
8539;DHT22;4307;53.868;11.680;2023-03-08T07:45:19;1.80;99.90
8539;DHT22;4307;53.868;11.680;2023-03-08T07:47:49;1.80;99.90
8539;DHT22;4307;53.868;11.680;2023-03-08T07:50:18;1.80;99.90
8539;DHT22;4307;53.868;11.680;2023-03-08T07:52:45;1.90;99.90
8539;DHT22;4307;53.868;11.680;2023-03-08T07:55:12;1.90;99.90
8539;DHT22;4307;53.868;11.680;2023-03-08T07:57:38;1.90;99.90
8539;DHT22;4307;53.868;11.680;2023-03-08T08:00:08;2.00;99.90
8539;DHT22;4307;53.868;11.680;2023-03-08T08:02:35;2.00;99.90
8539;DHT22;4307;53.868;11.680;2023-03-08T08:05:03;2.00;99.90
8539;DHT22;4307;53.868;11.680;2023-03-08T08:07:31;2.10;99.90
8539;DHT22;4307;53.868;11.680;2023-03-08T08:09:58;2.10;99.90
8539;DHT22;4307;53.868;11.680;2023-03-08T08:12:25;2.10;99.90
8539;DHT22;4307;53.868;11.680;2023-03-08T08:14:52;2.10;99.90
8539;DHT22;4307;53.868;11.680;2023-03-08T08:17:20;2.20;99.90
8539;DHT22;4307;53.868;11.680;2023-03-08T08:19:47;2.20;99.90
8539;DHT22;4307;53.868;11.680;2023-03-08T08:22:14;2.20;99.90
8539;DHT22;4307;53.868;11.680;2023-03-08T08:24:42;2.20;99.90
8539;DHT22;4307;53.868;11.680;2023-03-08T08:27:08;2.20;99.90
8539;DHT22;4307;53.868;11.680;2023-03-08T08:29:36;2.20;99.90
8539;DHT22;4307;53.868;11.680;2023-03-08T08:32:03;2.20;99.90
8539;DHT22;4307;53.868;11.680;2023-03-08T08:34:30;2.20;99.90
8539;DHT22;4307;53.868;11.680;2023-03-08T08:36:56;2.30;99.90
8539;DHT22;4307;53.868;11.680;2023-03-08T08:39:23;2.30;99.90
8539;DHT22;4307;53.868;11.680;2023-03-08T08:41:51;2.40;99.90
8539;DHT22;4307;53.868;11.680;2023-03-08T08:44:18;2.40;99.90
8539;DHT22;4307;53.868;11.680;2023-03-08T08:46:44;2.50;99.90
8539;DHT22;4307;53.868;11.680;2023-03-08T08:49:11;2.60;99.90
8539;DHT22;4307;53.868;11.680;2023-03-08T08:51:38;2.50;99.90
8539;DHT22;4307;53.868;11.680;2023-03-08T08:54:04;2.50;99.90
8539;DHT22;4307;53.868;11.680;2023-03-08T08:56:31;2.60;99.90
8539;DHT22;4307;53.868;11.680;2023-03-08T08:59:01;2.60;99.90
8539;DHT22;4307;53.868;11.680;2023-03-08T09:01:30;2.70;99.90
8539;DHT22;4307;53.868;11.680;2023-03-08T09:03:57;2.70;99.90
8539;DHT22;4307;53.868;11.680;2023-03-08T09:06:24;2.80;99.90
8539;DHT22;4307;53.868;11.680;2023-03-08T09:08:54;2.80;99.90
8539;DHT22;4307;53.868;11.680;2023-03-08T09:11:21;2.70;99.90
8539;DHT22;4307;53.868;11.680;2023-03-08T09:13:48;2.70;99.90
8539;DHT22;4307;53.868;11.680;2023-03-08T09:16:18;2.70;99.90
8539;DHT22;4307;53.868;11.680;2023-03-08T09:18:45;2.70;99.90
8539;DHT22;4307;53.868;11.680;2023-03-08T09:21:12;2.70;99.90
8539;DHT22;4307;53.868;11.680;2023-03-08T09:23:39;2.70;99.90
8539;DHT22;4307;53.868;11.680;2023-03-08T09:26:07;2.70;99.90
8539;DHT22;4307;53.868;11.680;2023-03-08T09:28:33;2.70;99.90
8539;DHT22;4307;53.868;11.680;2023-03-08T09:31:05;2.70;99.90
8539;DHT22;4307;53.868;11.680;2023-03-08T09:33:37;2.70;99.90
8539;DHT22;4307;53.868;11.680;2023-03-08T09:36:04;2.80;99.90
8539;DHT22;4307;53.868;11.680;2023-03-08T09:38:31;2.80;99.90
8539;DHT22;4307;53.868;11.680;2023-03-08T09:41:09;2.80;99.90
8539;DHT22;4307;53.868;11.680;2023-03-08T09:43:43;2.90;99.90
8539;DHT22;4307;53.868;11.680;2023-03-08T09:46:12;2.90;99.90
8539;DHT22;4307;53.868;11.680;2023-03-08T09:48:43;2.90;99.90
8539;DHT22;4307;53.868;11.680;2023-03-08T09:51:13;2.90;99.90
8539;DHT22;4307;53.868;11.680;2023-03-08T09:53:45;2.90;99.90
8539;DHT22;4307;53.868;11.680;2023-03-08T09:56:21;2.90;99.90
8539;DHT22;4307;53.868;11.680;2023-03-08T09:58:54;3.00;99.90
8539;DHT22;4307;53.868;11.680;2023-03-08T10:01:30;3.10;99.90
8539;DHT22;4307;53.868;11.680;2023-03-08T10:04:23;3.10;99.90
8539;DHT22;4307;53.868;11.680;2023-03-08T10:07:05;3.10;99.90
8539;DHT22;4307;53.868;11.680;2023-03-08T10:09:36;3.10;99.90
8539;DHT22;4307;53.868;11.680;2023-03-08T10:12:16;3.10;99.90
8539;DHT22;4307;53.868;11.680;2023-03-08T10:14:48;3.10;99.90
8539;DHT22;4307;53.868;11.680;2023-03-08T10:17:18;3.00;99.90
8539;DHT22;4307;53.868;11.680;2023-03-08T10:19:53;3.10;99.90
8539;DHT22;4307;53.868;11.680;2023-03-08T10:22:25;3.10;99.90
8539;DHT22;4307;53.868;11.680;2023-03-08T10:24:56;3.10;99.90
8539;DHT22;4307;53.868;11.680;2023-03-08T10:27:25;3.10;99.90
8539;DHT22;4307;53.868;11.680;2023-03-08T10:29:54;3.10;99.90
8539;DHT22;4307;53.868;11.680;2023-03-08T10:32:22;3.10;99.90
8539;DHT22;4307;53.868;11.680;2023-03-08T10:34:51;3.10;99.90
8539;DHT22;4307;53.868;11.680;2023-03-08T10:37:19;3.10;99.90
8539;DHT22;4307;53.868;11.680;2023-03-08T10:39:48;3.10;99.90
8539;DHT22;4307;53.868;11.680;2023-03-08T10:42:19;3.20;99.90
8539;DHT22;4307;53.868;11.680;2023-03-08T10:44:54;3.40;99.90
8539;DHT22;4307;53.868;11.680;2023-03-08T10:47:23;3.60;99.90
8539;DHT22;4307;53.868;11.680;2023-03-08T10:50:04;3.80;99.90
8539;DHT22;4307;53.868;11.680;2023-03-08T10:52:31;4.00;99.90
8539;DHT22;4307;53.868;11.680;2023-03-08T10:55:04;4.20;99.90
8539;DHT22;4307;53.868;11.680;2023-03-08T10:57:31;4.20;99.90
8539;DHT22;4307;53.868;11.680;2023-03-08T11:00:02;4.20;99.90
8539;DHT22;4307;53.868;11.680;2023-03-08T11:02:37;4.20;99.90
8539;DHT22;4307;53.868;11.680;2023-03-08T11:05:17;4.40;99.90
8539;DHT22;4307;53.868;11.680;2023-03-08T11:07:49;4.50;99.90
8539;DHT22;4307;53.868;11.680;2023-03-08T11:10:18;4.50;99.90
8539;DHT22;4307;53.868;11.680;2023-03-08T11:12:45;4.50;99.90
8539;DHT22;4307;53.868;11.680;2023-03-08T11:15:13;4.40;99.90
8539;DHT22;4307;53.868;11.680;2023-03-08T11:17:46;4.30;99.90
8539;DHT22;4307;53.868;11.680;2023-03-08T11:20:22;4.30;99.90
8539;DHT22;4307;53.868;11.680;2023-03-08T11:23:08;4.30;99.90
8539;DHT22;4307;53.868;11.680;2023-03-08T11:25:44;4.30;99.90
8539;DHT22;4307;53.868;11.680;2023-03-08T11:28:23;4.30;99.90
8539;DHT22;4307;53.868;11.680;2023-03-08T11:31:02;4.40;99.90
8539;DHT22;4307;53.868;11.680;2023-03-08T11:33:40;4.50;99.90
8539;DHT22;4307;53.868;11.680;2023-03-08T11:36:18;4.40;99.90
8539;DHT22;4307;53.868;11.680;2023-03-08T11:38:51;4.40;99.90
8539;DHT22;4307;53.868;11.680;2023-03-08T11:41:24;4.30;99.90
8539;DHT22;4307;53.868;11.680;2023-03-08T11:44:11;4.30;99.90
8539;DHT22;4307;53.868;11.680;2023-03-08T11:46:49;4.40;99.90
8539;DHT22;4307;53.868;11.680;2023-03-08T11:49:30;4.50;99.90
8539;DHT22;4307;53.868;11.680;2023-03-08T11:52:05;4.50;99.90
8539;DHT22;4307;53.868;11.680;2023-03-08T11:54:46;4.60;99.90
8539;DHT22;4307;53.868;11.680;2023-03-08T11:57:17;4.60;99.90
8539;DHT22;4307;53.868;11.680;2023-03-08T11:59:47;4.70;99.90
8539;DHT22;4307;53.868;11.680;2023-03-08T12:02:19;4.70;99.90
8539;DHT22;4307;53.868;11.680;2023-03-08T12:04:57;4.80;99.90
8539;DHT22;4307;53.868;11.680;2023-03-08T12:07:30;4.80;99.90
8539;DHT22;4307;53.868;11.680;2023-03-08T12:10:03;4.70;99.90
8539;DHT22;4307;53.868;11.680;2023-03-08T12:12:38;4.70;99.90
8539;DHT22;4307;53.868;11.680;2023-03-08T12:15:16;4.70;99.90
8539;DHT22;4307;53.868;11.680;2023-03-08T12:17:49;4.80;99.90
8539;DHT22;4307;53.868;11.680;2023-03-08T12:20:19;4.80;99.90
8539;DHT22;4307;53.868;11.680;2023-03-08T12:22:53;4.90;99.90
8539;DHT22;4307;53.868;11.680;2023-03-08T12:25:25;4.90;99.90
8539;DHT22;4307;53.868;11.680;2023-03-08T12:27:57;5.00;99.90
8539;DHT22;4307;53.868;11.680;2023-03-08T12:30:35;5.00;99.90
8539;DHT22;4307;53.868;11.680;2023-03-08T12:33:04;5.10;99.90
8539;DHT22;4307;53.868;11.680;2023-03-08T12:35:32;5.20;99.90
8539;DHT22;4307;53.868;11.680;2023-03-08T12:38:03;5.30;99.90
8539;DHT22;4307;53.868;11.680;2023-03-08T12:40:43;5.30;99.90
8539;DHT22;4307;53.868;11.680;2023-03-08T12:43:12;5.40;99.90
8539;DHT22;4307;53.868;11.680;2023-03-08T12:45:40;5.40;99.90
8539;DHT22;4307;53.868;11.680;2023-03-08T12:48:15;5.50;99.90
8539;DHT22;4307;53.868;11.680;2023-03-08T12:50:45;5.60;99.90
8539;DHT22;4307;53.868;11.680;2023-03-08T12:53:29;5.60;99.90
8539;DHT22;4307;53.868;11.680;2023-03-08T12:56:06;5.70;99.90
8539;DHT22;4307;53.868;11.680;2023-03-08T12:58:47;5.70;99.90
8539;DHT22;4307;53.868;11.680;2023-03-08T13:04:25;5.80;99.90
8539;DHT22;4307;53.868;11.680;2023-03-08T13:07:21;5.80;99.90
8539;DHT22;4307;53.868;11.680;2023-03-08T13:09:55;5.80;99.90
8539;DHT22;4307;53.868;11.680;2023-03-08T13:12:31;5.80;99.90
8539;DHT22;4307;53.868;11.680;2023-03-08T13:15:07;5.80;99.90
8539;DHT22;4307;53.868;11.680;2023-03-08T13:17:37;5.80;99.90
8539;DHT22;4307;53.868;11.680;2023-03-08T13:20:13;5.80;99.90
8539;DHT22;4307;53.868;11.680;2023-03-08T13:22:49;5.70;99.90
8539;DHT22;4307;53.868;11.680;2023-03-08T13:25:29;5.70;99.90
8539;DHT22;4307;53.868;11.680;2023-03-08T13:28:01;5.70;99.90
8539;DHT22;4307;53.868;11.680;2023-03-08T13:30:32;5.70;99.90
8539;DHT22;4307;53.868;11.680;2023-03-08T13:32:59;5.80;99.90
8539;DHT22;4307;53.868;11.680;2023-03-08T13:35:26;5.90;99.90
8539;DHT22;4307;53.868;11.680;2023-03-08T13:37:55;5.90;99.90
8539;DHT22;4307;53.868;11.680;2023-03-08T13:40:26;5.90;99.90
8539;DHT22;4307;53.868;11.680;2023-03-08T13:42:54;6.00;99.90
8539;DHT22;4307;53.868;11.680;2023-03-08T13:45:21;5.90;99.90
8539;DHT22;4307;53.868;11.680;2023-03-08T13:47:48;5.90;99.90
8539;DHT22;4307;53.868;11.680;2023-03-08T13:50:20;5.90;99.90
8539;DHT22;4307;53.868;11.680;2023-03-08T13:52:48;5.90;99.90
8539;DHT22;4307;53.868;11.680;2023-03-08T13:55:19;5.90;99.90
8539;DHT22;4307;53.868;11.680;2023-03-08T13:57:49;5.80;99.90
8539;DHT22;4307;53.868;11.680;2023-03-08T14:00:27;5.80;99.90
8539;DHT22;4307;53.868;11.680;2023-03-08T14:02:55;5.70;99.90
8539;DHT22;4307;53.868;11.680;2023-03-08T14:05:24;5.70;99.90
8539;DHT22;4307;53.868;11.680;2023-03-08T14:07:56;5.70;99.90
8539;DHT22;4307;53.868;11.680;2023-03-08T14:10:24;5.70;99.90
8539;DHT22;4307;53.868;11.680;2023-03-08T14:12:55;5.70;99.90
8539;DHT22;4307;53.868;11.680;2023-03-08T14:15:22;5.70;99.90
8539;DHT22;4307;53.868;11.680;2023-03-08T14:17:49;5.70;99.90
8539;DHT22;4307;53.868;11.680;2023-03-08T14:20:18;5.90;99.90
8539;DHT22;4307;53.868;11.680;2023-03-08T14:22:46;5.70;99.90
8539;DHT22;4307;53.868;11.680;2023-03-08T14:25:26;5.70;99.90
8539;DHT22;4307;53.868;11.680;2023-03-08T14:27:54;5.70;99.90
8539;DHT22;4307;53.868;11.680;2023-03-08T14:30:23;5.60;99.90
8539;DHT22;4307;53.868;11.680;2023-03-08T14:33:00;5.60;99.90
8539;DHT22;4307;53.868;11.680;2023-03-08T14:35:29;5.50;99.90
8539;DHT22;4307;53.868;11.680;2023-03-08T14:37:56;5.50;99.90
8539;DHT22;4307;53.868;11.680;2023-03-08T14:40:28;5.50;99.90
8539;DHT22;4307;53.868;11.680;2023-03-08T14:42:58;5.50;99.90
8539;DHT22;4307;53.868;11.680;2023-03-08T14:45:31;5.50;99.90
8539;DHT22;4307;53.868;11.680;2023-03-08T14:47:59;5.50;99.90
8539;DHT22;4307;53.868;11.680;2023-03-08T14:50:28;5.60;99.90
8539;DHT22;4307;53.868;11.680;2023-03-08T14:52:57;5.60;99.90
8539;DHT22;4307;53.868;11.680;2023-03-08T14:55:25;5.60;99.90
8539;DHT22;4307;53.868;11.680;2023-03-08T14:57:54;5.60;99.90
8539;DHT22;4307;53.868;11.680;2023-03-08T15:00:24;5.60;99.90
8539;DHT22;4307;53.868;11.680;2023-03-08T15:02:52;5.60;99.90
8539;DHT22;4307;53.868;11.680;2023-03-08T15:05:20;5.50;99.90
8539;DHT22;4307;53.868;11.680;2023-03-08T15:07:48;5.50;99.90
8539;DHT22;4307;53.868;11.680;2023-03-08T15:10:20;5.50;99.90
8539;DHT22;4307;53.868;11.680;2023-03-08T15:12:47;5.40;99.90
8539;DHT22;4307;53.868;11.680;2023-03-08T15:15:14;5.40;99.90
8539;DHT22;4307;53.868;11.680;2023-03-08T15:17:42;5.40;99.90
8539;DHT22;4307;53.868;11.680;2023-03-08T15:20:10;5.30;99.90
8539;DHT22;4307;53.868;11.680;2023-03-08T15:22:42;5.20;99.90
8539;DHT22;4307;53.868;11.680;2023-03-08T15:25:14;5.20;99.90
8539;DHT22;4307;53.868;11.680;2023-03-08T15:27:41;5.10;99.90
8539;DHT22;4307;53.868;11.680;2023-03-08T15:30:16;5.00;99.90
8539;DHT22;4307;53.868;11.680;2023-03-08T15:32:44;4.90;99.90
8539;DHT22;4307;53.868;11.680;2023-03-08T15:35:11;4.90;99.90
8539;DHT22;4307;53.868;11.680;2023-03-08T15:37:39;4.70;99.90
8539;DHT22;4307;53.868;11.680;2023-03-08T15:40:10;4.60;99.90
8539;DHT22;4307;53.868;11.680;2023-03-08T15:42:37;4.50;99.90
8539;DHT22;4307;53.868;11.680;2023-03-08T15:45:05;4.40;99.90
8539;DHT22;4307;53.868;11.680;2023-03-08T15:47:31;4.30;99.90
8539;DHT22;4307;53.868;11.680;2023-03-08T15:49:59;4.20;99.90
8539;DHT22;4307;53.868;11.680;2023-03-08T15:52:27;4.20;99.90
8539;DHT22;4307;53.868;11.680;2023-03-08T15:54:53;4.20;99.90
8539;DHT22;4307;53.868;11.680;2023-03-08T15:57:20;4.20;99.90
8539;DHT22;4307;53.868;11.680;2023-03-08T15:59:47;4.10;99.90
8539;DHT22;4307;53.868;11.680;2023-03-08T16:02:17;4.10;99.90
8539;DHT22;4307;53.868;11.680;2023-03-08T16:04:44;4.10;99.90
8539;DHT22;4307;53.868;11.680;2023-03-08T16:07:14;4.00;99.90
8539;DHT22;4307;53.868;11.680;2023-03-08T16:09:42;4.00;99.90
8539;DHT22;4307;53.868;11.680;2023-03-08T16:12:09;3.90;99.90
8539;DHT22;4307;53.868;11.680;2023-03-08T16:14:36;3.90;99.90
8539;DHT22;4307;53.868;11.680;2023-03-08T16:17:03;3.90;99.90